createdAt,value
2023-02-11T00:01:52.381Z,69.20
2023-02-11T00:04:18.960Z,75.90
2023-02-11T00:06:45.493Z,75.32
2023-02-11T00:09:12.089Z,74.90
2023-02-11T00:11:38.625Z,77.05
2023-02-11T00:14:08.043Z,73.78
2023-02-11T00:16:34.988Z,82.65
2023-02-11T00:19:02.877Z,71.93
2023-02-11T00:21:29.763Z,78.28
2023-02-11T00:23:57.210Z,72.57
2023-02-11T00:26:27.383Z,74.32
2023-02-11T00:28:54.450Z,87.13
2023-02-11T00:31:22.894Z,83.93
2023-02-11T00:36:24.666Z,75.88
2023-02-11T00:38:52.624Z,78.93
2023-02-11T00:41:19.687Z,81.80
2023-02-11T00:43:46.280Z,76.68
2023-02-11T00:46:13.510Z,79.63
2023-02-11T00:48:40.309Z,74.75
2023-02-11T00:51:07.015Z,77.65
2023-02-11T00:53:33.817Z,81.63
2023-02-11T00:56:01.221Z,76.68
2023-02-11T00:58:28.544Z,76.25
2023-02-11T01:00:55.845Z,81.90
2023-02-11T01:03:22.469Z,85.60
2023-02-11T01:05:49.432Z,80.78
2023-02-11T01:08:16.250Z,72.15
2023-02-11T01:10:44.004Z,73.50
2023-02-11T01:13:11.130Z,70.05
2023-02-11T01:15:37.794Z,69.20
2023-02-11T01:18:05.445Z,75.32
2023-02-11T01:20:32.074Z,77.47
2023-02-11T01:22:58.684Z,73.10
2023-02-11T01:25:25.269Z,69.22
2023-02-11T01:27:51.867Z,89.10
2023-02-11T01:30:18.430Z,71.95
2023-02-11T01:32:44.981Z,72.18
2023-02-11T01:35:11.551Z,71.18
2023-02-11T01:37:38.145Z,76.75
2023-02-11T01:40:07.339Z,72.80
2023-02-11T01:42:34.007Z,78.38
2023-02-11T01:45:02.192Z,77.75
2023-02-11T01:47:28.746Z,88.25
2023-02-11T01:49:59.780Z,80.13
2023-02-11T01:52:32.945Z,72.28
2023-02-11T01:55:19.737Z,79.20
2023-02-11T01:57:50.069Z,75.00
2023-02-11T02:00:27.629Z,74.10
2023-02-11T02:03:11.486Z,76.88
2023-02-11T02:05:48.737Z,82.95
2023-02-11T02:08:23.487Z,78.18
2023-02-11T02:10:56.416Z,80.68
2023-02-11T02:13:24.170Z,79.05
2023-02-11T02:15:56.065Z,81.40
2023-02-11T02:18:34.850Z,85.85
2023-02-11T02:21:27.564Z,79.30
2023-02-11T02:24:41.614Z,86.72
2023-02-11T02:27:10.786Z,88.78
2023-02-11T02:29:56.024Z,84.95
2023-02-11T02:32:47.182Z,80.05
2023-02-11T02:35:32.238Z,86.32
2023-02-11T02:38:30.825Z,81.18
2023-02-11T02:41:03.078Z,78.88
2023-02-11T02:43:30.703Z,82.30
2023-02-11T02:46:13.618Z,90.53
2023-02-11T02:48:40.246Z,84.85
2023-02-11T02:51:12.850Z,85.32
2023-02-11T02:53:42.442Z,86.85
2023-02-11T02:56:40.834Z,94.50
2023-02-11T02:59:25.617Z,78.50
2023-02-11T03:01:58.082Z,88.95
2023-02-11T03:04:52.982Z,85.18
2023-02-11T03:07:48.703Z,86.82
2023-02-11T03:10:31.545Z,97.53
2023-02-11T03:12:58.673Z,92.80
2023-02-11T03:15:27.458Z,84.18
2023-02-11T03:17:56.716Z,108.13
2023-02-11T03:20:23.430Z,96.65
2023-02-11T03:22:54.033Z,90.03
2023-02-11T03:25:20.902Z,88.30
2023-02-11T03:27:52.662Z,89.13
2023-02-11T03:30:23.001Z,91.03
2023-02-11T03:32:52.534Z,95.80
2023-02-11T03:35:32.089Z,92.32
2023-02-11T03:38:12.753Z,86.18
2023-02-11T03:40:40.724Z,85.57
2023-02-11T03:43:12.589Z,94.50
2023-02-11T03:45:39.829Z,84.43
2023-02-11T03:48:17.400Z,93.00
2023-02-11T03:50:45.497Z,80.68
2023-02-11T03:53:12.945Z,88.20
2023-02-11T03:55:40.326Z,88.25
2023-02-11T03:58:07.625Z,77.30
2023-02-11T04:00:37.207Z,82.40
2023-02-11T04:03:04.606Z,77.82
2023-02-11T04:05:31.636Z,85.38
2023-02-11T04:07:58.458Z,77.35
2023-02-11T04:10:25.487Z,79.32
2023-02-11T04:12:52.144Z,73.72
2023-02-11T04:15:18.889Z,74.25
2023-02-11T04:17:45.533Z,80.10
2023-02-11T04:20:12.430Z,76.30
2023-02-11T04:22:39.097Z,72.65
2023-02-11T04:25:06.811Z,71.45
2023-02-11T04:27:33.464Z,76.78
2023-02-11T04:30:00.036Z,72.90
2023-02-11T04:32:26.646Z,63.75
2023-02-11T04:34:54.335Z,71.85
2023-02-11T04:37:21.263Z,62.85
2023-02-11T04:39:47.862Z,68.55
2023-02-11T04:42:14.553Z,68.57
2023-02-11T04:44:41.174Z,53.45
2023-02-11T04:47:07.735Z,65.70
2023-02-11T04:49:34.377Z,60.50
2023-02-11T04:52:00.964Z,60.17
2023-02-11T04:54:27.528Z,54.75
2023-02-11T04:56:54.094Z,59.38
2023-02-11T04:59:20.669Z,60.38
2023-02-11T05:01:47.294Z,66.70
2023-02-11T05:04:13.922Z,55.10
2023-02-11T05:06:40.585Z,57.78
2023-02-11T05:09:07.554Z,54.55
2023-02-11T05:11:34.425Z,55.92
2023-02-11T05:14:00.973Z,54.30
2023-02-11T05:16:28.150Z,58.30
2023-02-11T05:18:55.828Z,57.38
2023-02-11T05:21:22.641Z,55.42
2023-02-11T05:23:49.285Z,55.63
2023-02-11T05:26:16.074Z,56.95
2023-02-11T05:28:42.958Z,55.58
2023-02-11T05:31:09.750Z,56.80
2023-02-11T05:33:36.526Z,53.65
2023-02-11T05:36:06.571Z,51.95
2023-02-11T05:38:33.437Z,55.45
2023-02-11T05:41:00.158Z,54.42
2023-02-11T05:43:26.912Z,49.40
2023-02-11T05:45:53.731Z,62.78
2023-02-11T05:48:20.489Z,57.85
2023-02-11T05:50:47.110Z,50.53
2023-02-11T05:53:13.787Z,52.85
2023-02-11T05:55:40.568Z,57.10
2023-02-11T05:58:08.081Z,47.17
2023-02-11T06:00:34.925Z,52.60
2023-02-11T06:03:01.543Z,50.75
2023-02-11T06:05:28.133Z,52.80
2023-02-11T06:07:54.707Z,57.88
2023-02-11T06:10:21.383Z,55.97
2023-02-11T06:12:48.201Z,59.00
2023-02-11T06:15:14.739Z,51.30
2023-02-11T06:17:41.324Z,55.00
2023-02-11T06:20:10.115Z,54.88
2023-02-11T06:22:36.714Z,63.88
2023-02-11T06:25:03.992Z,53.95
2023-02-11T06:27:30.919Z,53.22
2023-02-11T06:29:57.546Z,56.20
2023-02-11T06:32:42.994Z,61.33
2023-02-11T06:35:12.119Z,57.42
2023-02-11T06:37:39.331Z,46.55
2023-02-11T06:40:06.348Z,64.03
2023-02-11T06:42:33.026Z,61.00
2023-02-11T06:44:59.668Z,55.30
2023-02-11T06:47:26.232Z,56.20
2023-02-11T06:49:52.819Z,54.63
2023-02-11T06:52:19.364Z,58.67
2023-02-11T06:54:46.206Z,63.28
2023-02-11T06:57:12.783Z,60.08
2023-02-11T06:59:39.319Z,52.78
2023-02-11T07:02:06.029Z,57.13
2023-02-11T07:04:32.651Z,61.28
2023-02-11T07:06:59.211Z,56.92
2023-02-11T07:09:25.846Z,58.00
2023-02-11T07:11:52.541Z,60.75
2023-02-11T07:14:19.141Z,50.80
2023-02-11T07:16:45.720Z,60.88
2023-02-11T07:19:12.358Z,56.13
2023-02-11T07:21:39.011Z,54.15
2023-02-11T07:24:11.045Z,50.20
2023-02-11T07:26:38.264Z,65.03
2023-02-11T07:29:04.871Z,60.50
2023-02-11T07:31:31.867Z,55.13
2023-02-11T07:34:00.688Z,60.42
2023-02-11T07:36:29.180Z,59.00
2023-02-11T07:41:23.628Z,53.90
2023-02-11T07:43:50.718Z,72.65
2023-02-11T07:46:20.253Z,55.78
2023-02-11T07:48:46.888Z,63.20
2023-02-11T07:51:16.537Z,62.17
2023-02-11T07:53:43.409Z,62.35
2023-02-11T07:56:11.229Z,63.25
2023-02-11T07:58:39.079Z,62.97
2023-02-11T08:01:08.319Z,64.80
2023-02-11T08:03:36.146Z,61.92
2023-02-11T08:06:07.714Z,64.13
2023-02-11T08:08:34.674Z,69.45
2023-02-11T08:11:16.320Z,63.38
2023-02-11T08:13:43.541Z,57.15
2023-02-11T08:16:18.704Z,61.40
2023-02-11T08:18:45.286Z,68.03
2023-02-11T08:21:11.939Z,61.70
2023-02-11T08:23:39.991Z,64.18
2023-02-11T08:26:18.205Z,64.15
2023-02-11T08:28:45.778Z,65.00
2023-02-11T08:31:15.078Z,60.10
2023-02-11T08:33:41.945Z,56.72
2023-02-11T08:36:13.910Z,63.70
2023-02-11T08:38:40.584Z,69.30
2023-02-11T08:41:07.901Z,61.35
2023-02-11T08:43:35.061Z,66.40
2023-02-11T08:46:02.518Z,73.38
2023-02-11T08:48:29.320Z,66.30
2023-02-11T08:50:56.649Z,69.25
2023-02-11T08:53:23.598Z,65.03
2023-02-11T08:55:54.404Z,80.80
2023-02-11T08:58:21.680Z,72.93
2023-02-11T09:00:49.819Z,66.75
2023-02-11T09:03:17.053Z,65.93
2023-02-11T09:05:49.850Z,68.75
2023-02-11T09:08:17.193Z,72.70
2023-02-11T09:10:43.951Z,70.70
2023-02-11T09:13:10.880Z,69.03
2023-02-11T09:15:37.515Z,64.88
2023-02-11T09:18:04.961Z,73.25
2023-02-11T09:20:31.531Z,73.78
2023-02-11T09:22:58.971Z,65.47
2023-02-11T09:25:25.932Z,75.97
2023-02-11T09:27:53.810Z,77.20
2023-02-11T09:30:20.574Z,79.43
2023-02-11T09:32:47.191Z,71.97
2023-02-11T09:35:13.786Z,67.47
2023-02-11T09:37:40.341Z,64.90
2023-02-11T09:40:07.336Z,74.63
2023-02-11T09:42:44.214Z,72.30
2023-02-11T09:45:23.307Z,85.78
2023-02-11T09:47:57.209Z,84.07
2023-02-11T09:50:26.570Z,81.45
2023-02-11T09:53:07.148Z,79.07
2023-02-11T09:55:39.433Z,82.75
2023-02-11T09:58:14.367Z,77.97
2023-02-11T10:01:21.902Z,77.72
2023-02-11T10:03:57.699Z,94.13
2023-02-11T10:06:47.228Z,87.18
2023-02-11T10:09:18.663Z,81.97
2023-02-11T10:12:23.071Z,81.88
2023-02-11T10:14:58.601Z,87.43
2023-02-11T10:17:46.408Z,94.00
2023-02-11T10:20:24.789Z,86.50
2023-02-11T10:25:39.650Z,81.78
2023-02-11T10:28:25.142Z,86.90
2023-02-11T10:31:11.455Z,86.20
2023-02-11T10:33:58.738Z,99.45
2023-02-11T10:36:30.502Z,83.80
2023-02-11T10:39:00.100Z,92.95
2023-02-11T10:41:31.245Z,91.40
2023-02-11T10:44:00.342Z,94.47
2023-02-11T10:46:31.388Z,101.88
2023-02-11T10:48:58.086Z,83.55
2023-02-11T10:51:26.807Z,91.03
2023-02-11T10:54:06.197Z,97.35
2023-02-11T10:56:35.920Z,86.43
2023-02-11T10:59:25.736Z,92.53
2023-02-11T11:02:00.730Z,94.88
2023-02-11T11:04:30.560Z,115.55
2023-02-11T11:07:10.161Z,93.32
2023-02-11T11:09:59.242Z,95.20
2023-02-11T11:12:47.348Z,91.72
2023-02-11T11:15:23.655Z,87.25
2023-02-11T11:17:51.682Z,98.55
2023-02-11T11:20:24.387Z,89.32
2023-02-11T11:22:52.966Z,87.63
2023-02-11T11:27:52.154Z,94.18
2023-02-11T11:30:19.187Z,81.78
2023-02-11T11:32:46.231Z,87.68
2023-02-11T11:35:29.115Z,92.80
2023-02-11T11:38:01.738Z,79.45
2023-02-11T11:40:34.862Z,87.32
2023-02-11T11:43:04.432Z,79.63
2023-02-11T11:45:31.029Z,84.78
2023-02-11T11:48:19.154Z,87.63
2023-02-11T11:50:50.586Z,78.95
2023-02-11T11:53:29.673Z,83.43
2023-02-11T11:56:11.363Z,81.95
2023-02-11T11:58:37.951Z,93.25
2023-02-11T12:01:30.594Z,76.97
2023-02-11T12:04:21.814Z,77.68
2023-02-11T12:07:23.981Z,76.15
2023-02-11T12:10:18.100Z,72.15
2023-02-11T12:12:56.128Z,69.88
2023-02-11T12:15:45.291Z,82.25
2023-02-11T12:18:23.565Z,81.45
2023-02-11T12:21:07.341Z,81.43
2023-02-11T12:23:52.118Z,81.03
2023-02-11T12:26:21.913Z,77.93
2023-02-11T12:29:27.037Z,83.28
2023-02-11T12:32:25.405Z,78.88
2023-02-11T12:35:04.789Z,88.05
2023-02-11T12:37:34.224Z,83.05
2023-02-11T12:40:16.022Z,81.90
2023-02-11T12:43:02.643Z,84.65
2023-02-11T12:45:35.876Z,76.63
2023-02-11T12:48:12.878Z,89.53
2023-02-11T12:50:48.777Z,78.05
2023-02-11T12:53:40.357Z,83.65
2023-02-11T12:56:15.207Z,87.90
2023-02-11T12:58:45.437Z,87.30
2023-02-11T13:01:36.140Z,85.18
2023-02-11T13:04:12.244Z,84.25
2023-02-11T13:06:43.157Z,87.22
2023-02-11T13:09:21.170Z,81.03
2023-02-11T13:11:54.921Z,89.30
2023-02-11T13:14:29.710Z,87.22
2023-02-11T13:16:58.415Z,73.80
2023-02-11T13:19:38.530Z,79.75
2023-02-11T13:22:10.949Z,75.78
2023-02-11T13:24:49.442Z,88.93
2023-02-11T13:27:30.120Z,85.20
2023-02-11T13:30:22.197Z,86.55
2023-02-11T13:32:55.522Z,88.70
2023-02-11T13:35:29.684Z,71.43
2023-02-11T13:37:57.372Z,74.63
2023-02-11T13:40:35.586Z,82.07
2023-02-11T13:43:04.524Z,80.10
2023-02-11T13:45:36.554Z,78.82
2023-02-11T13:48:06.037Z,79.28
2023-02-11T13:50:38.506Z,63.05
2023-02-11T13:53:07.455Z,67.90
2023-02-11T13:55:34.962Z,72.88
2023-02-11T13:58:13.620Z,63.05
2023-02-11T14:00:40.381Z,67.93
2023-02-11T14:03:31.398Z,68.68
2023-02-11T14:06:28.693Z,72.55
2023-02-11T14:09:10.376Z,66.40
2023-02-11T14:11:44.758Z,63.08
2023-02-11T14:14:26.057Z,61.20
2023-02-11T14:16:58.961Z,67.63
2023-02-11T14:19:38.743Z,64.07
2023-02-11T14:22:13.551Z,68.15
2023-02-11T14:24:46.994Z,69.60
2023-02-11T14:27:20.761Z,60.13
2023-02-11T14:29:58.517Z,71.85
2023-02-11T14:32:57.577Z,61.53
2023-02-11T14:35:39.683Z,56.95
2023-02-11T14:38:34.361Z,65.80
2023-02-11T14:41:12.099Z,62.40
2023-02-11T14:43:46.170Z,58.28
2023-02-11T14:46:15.653Z,63.20
2023-02-11T14:48:46.221Z,62.65
2023-02-11T14:51:23.322Z,62.53
2023-02-11T14:53:51.510Z,71.10
2023-02-11T14:56:21.330Z,65.38
2023-02-11T14:58:49.698Z,58.50
2023-02-11T15:01:32.651Z,66.97
2023-02-11T15:04:02.637Z,66.07
2023-02-11T15:06:34.201Z,56.33
2023-02-11T15:09:20.730Z,63.35
2023-02-11T15:11:48.579Z,60.92
2023-02-11T15:14:26.487Z,54.35
2023-02-11T15:16:55.388Z,54.28
2023-02-11T15:19:34.097Z,62.58
2023-02-11T15:22:01.787Z,54.83
2023-02-11T15:24:31.012Z,47.92
2023-02-11T15:27:03.948Z,60.70
2023-02-11T15:29:42.621Z,49.78
2023-02-11T15:32:26.013Z,60.17
2023-02-11T15:34:54.100Z,60.15
2023-02-11T15:37:31.709Z,58.92
2023-02-11T15:40:15.191Z,57.17
2023-02-11T15:42:55.015Z,57.03
2023-02-11T15:45:31.088Z,53.20
2023-02-11T15:48:00.445Z,52.85
2023-02-11T15:50:29.552Z,58.80
2023-02-11T15:52:57.812Z,55.40
2023-02-11T15:55:25.267Z,49.95
2023-02-11T15:57:57.927Z,57.92
2023-02-11T16:00:36.773Z,56.65
2023-02-11T16:03:03.602Z,62.22
2023-02-11T16:05:31.789Z,57.67
2023-02-11T16:07:59.075Z,52.55
2023-02-11T16:10:32.110Z,48.97
2023-02-11T16:13:07.865Z,49.20
2023-02-11T16:15:34.389Z,50.78
2023-02-11T16:18:13.921Z,54.17
2023-02-11T16:20:40.597Z,53.97
2023-02-11T16:23:07.807Z,58.20
2023-02-11T16:25:37.777Z,51.63
2023-02-11T16:28:05.264Z,59.92
2023-02-11T16:30:40.501Z,53.05
2023-02-11T16:33:09.443Z,55.63
2023-02-11T16:35:37.411Z,55.85
2023-02-11T16:38:03.968Z,46.70
2023-02-11T16:40:30.515Z,55.05
2023-02-11T16:42:57.077Z,47.90
2023-02-11T16:45:23.680Z,50.97
2023-02-11T16:47:50.262Z,43.38
2023-02-11T16:50:25.091Z,50.75
2023-02-11T16:52:52.473Z,44.58
2023-02-11T16:55:21.726Z,56.42
2023-02-11T16:57:48.838Z,46.75
2023-02-11T17:00:16.682Z,48.45
2023-02-11T17:02:43.575Z,56.28
2023-02-11T17:05:18.738Z,49.92
2023-02-11T17:07:45.282Z,43.08
2023-02-11T17:10:30.827Z,51.17
2023-02-11T17:12:57.425Z,49.72
2023-02-11T17:15:24.157Z,45.05
2023-02-11T17:17:50.726Z,53.22
2023-02-11T17:20:17.628Z,48.80
2023-02-11T17:22:44.214Z,54.85
2023-02-11T17:25:10.824Z,46.70
2023-02-11T17:27:37.371Z,41.25
2023-02-11T17:30:05.310Z,49.40
2023-02-11T17:32:31.863Z,41.40
2023-02-11T17:34:58.414Z,43.60
2023-02-11T17:37:25.191Z,47.75
2023-02-11T17:39:51.764Z,46.75
2023-02-11T17:42:19.279Z,44.53
2023-02-11T17:44:46.370Z,50.33
2023-02-11T17:47:13.188Z,43.20
2023-02-11T17:49:40.100Z,50.70
2023-02-11T17:52:06.718Z,44.63
2023-02-11T17:54:33.474Z,46.97
2023-02-11T17:57:00.166Z,47.45
2023-02-11T17:59:28.481Z,48.30
2023-02-11T18:01:55.030Z,45.08
2023-02-11T18:04:21.723Z,43.28
2023-02-11T18:06:48.349Z,38.55
2023-02-11T18:09:14.896Z,39.60
2023-02-11T18:11:41.782Z,38.22
2023-02-11T18:14:09.009Z,43.10
2023-02-11T18:16:36.637Z,43.70
2023-02-11T18:19:04.336Z,46.03
2023-02-11T18:21:31.235Z,45.23
2023-02-11T18:23:57.965Z,42.92
2023-02-11T18:26:28.193Z,41.95
2023-02-11T18:28:57.623Z,38.58
2023-02-11T18:31:25.035Z,48.17
2023-02-11T18:33:53.135Z,45.22
2023-02-11T18:36:20.590Z,38.75
2023-02-11T18:38:47.185Z,39.47
2023-02-11T18:41:14.189Z,41.15
2023-02-11T18:43:40.811Z,42.00
2023-02-11T18:46:14.423Z,46.50
2023-02-11T18:48:41.436Z,37.38
2023-02-11T18:51:10.098Z,35.65
2023-02-11T18:53:37.070Z,37.40
2023-02-11T18:56:09.294Z,41.42
2023-02-11T18:58:37.646Z,35.30
2023-02-11T19:01:17.790Z,33.40
2023-02-11T19:03:45.118Z,39.58
2023-02-11T19:06:21.216Z,33.38
2023-02-11T19:08:48.282Z,35.88
2023-02-11T19:11:17.315Z,32.97
2023-02-11T19:13:43.951Z,34.22
2023-02-11T19:16:11.576Z,34.95
2023-02-11T19:18:38.809Z,32.55
2023-02-11T19:21:10.090Z,32.30
2023-02-11T19:23:37.083Z,29.08
2023-02-11T19:26:04.546Z,31.63
2023-02-11T19:28:35.358Z,39.30
2023-02-11T19:31:06.372Z,36.10
2023-02-11T19:33:33.101Z,30.30
2023-02-11T19:36:04.939Z,29.90
2023-02-11T19:38:31.556Z,34.50
2023-02-11T19:40:58.379Z,30.85
2023-02-11T19:43:25.848Z,31.27
2023-02-11T19:45:56.216Z,27.52
2023-02-11T19:48:24.052Z,33.47
2023-02-11T19:50:50.767Z,27.42
2023-02-11T19:53:17.386Z,29.17
2023-02-11T19:55:44.200Z,25.27
2023-02-11T19:58:10.794Z,28.73
2023-02-11T20:00:37.381Z,28.92
2023-02-11T20:03:03.989Z,28.15
2023-02-11T20:05:31.476Z,30.13
2023-02-11T20:07:58.177Z,24.50
2023-02-11T20:10:25.348Z,29.30
2023-02-11T20:12:51.969Z,30.33
2023-02-11T20:15:18.640Z,26.00
2023-02-11T20:17:45.270Z,27.27
2023-02-11T20:20:12.917Z,25.77
2023-02-11T20:22:39.471Z,25.33
2023-02-11T20:25:06.641Z,25.60
2023-02-11T20:27:33.456Z,25.65
2023-02-11T20:30:00.047Z,23.20
2023-02-11T20:32:26.671Z,23.90
2023-02-11T20:34:53.367Z,22.05
2023-02-11T20:37:20.188Z,26.17
2023-02-11T20:39:46.770Z,22.75
2023-02-11T20:42:14.521Z,18.63
2023-02-11T20:44:41.391Z,19.15
2023-02-11T20:47:08.010Z,21.23
2023-02-11T20:49:34.590Z,22.13
2023-02-11T20:52:01.153Z,22.65
2023-02-11T20:54:27.809Z,17.33
2023-02-11T20:56:55.407Z,22.83
2023-02-11T20:59:22.582Z,20.60
2023-02-11T21:01:53.493Z,15.25
2023-02-11T21:04:22.568Z,16.83
2023-02-11T21:06:52.333Z,16.67
2023-02-11T21:09:21.645Z,14.77
2023-02-11T21:11:51.561Z,18.63
2023-02-11T21:14:19.105Z,11.98
2023-02-11T21:16:47.268Z,15.02
2023-02-11T21:19:14.435Z,15.73
2023-02-11T21:21:41.552Z,15.02
2023-02-11T21:24:09.717Z,13.18
2023-02-11T21:26:37.228Z,12.82
2023-02-11T21:29:05.119Z,10.85
2023-02-11T21:31:33.534Z,16.38
2023-02-11T21:36:27.973Z,17.92
2023-02-11T21:38:54.610Z,12.23
2023-02-11T21:41:22.618Z,16.05
2023-02-11T21:43:50.092Z,14.18
2023-02-11T21:46:17.351Z,14.68
2023-02-11T21:48:44.118Z,17.05
2023-02-11T21:51:17.082Z,11.15
2023-02-11T21:53:44.139Z,13.18
2023-02-11T21:56:13.436Z,11.07
2023-02-11T21:58:40.057Z,13.10
2023-02-11T22:01:16.593Z,11.48
2023-02-11T22:03:43.754Z,12.15
2023-02-11T22:06:13.143Z,8.75
2023-02-11T22:08:40.431Z,12.77
2023-02-11T22:11:10.156Z,11.75
2023-02-11T22:13:37.278Z,11.43
2023-02-11T22:16:06.487Z,15.63
2023-02-11T22:18:33.412Z,18.17
2023-02-11T22:21:05.882Z,11.27
2023-02-11T22:23:32.609Z,10.95
2023-02-11T22:26:04.153Z,9.25
2023-02-11T22:28:30.832Z,16.52
2023-02-11T22:30:58.254Z,11.95
2023-02-11T22:33:25.970Z,10.23
2023-02-11T22:36:00.714Z,13.32
2023-02-11T22:38:31.882Z,9.80
2023-02-11T22:40:59.645Z,12.13
2023-02-11T22:43:27.634Z,16.10
2023-02-11T22:45:56.459Z,11.75
2023-02-11T22:48:23.356Z,12.55
2023-02-11T22:50:49.945Z,10.75
2023-02-11T22:53:16.527Z,14.38
2023-02-11T22:55:43.169Z,15.88
2023-02-11T22:58:09.938Z,9.70
2023-02-11T23:00:38.986Z,14.00
2023-02-11T23:03:06.499Z,11.50
2023-02-11T23:05:40.102Z,12.70
2023-02-11T23:08:08.635Z,10.20
2023-02-11T23:13:03.176Z,15.15
2023-02-11T23:15:30.015Z,15.30
2023-02-11T23:17:56.824Z,13.32
2023-02-11T23:20:23.519Z,10.90
2023-02-11T23:22:50.123Z,15.70
2023-02-11T23:25:16.688Z,10.60
2023-02-11T23:27:43.424Z,15.35
2023-02-11T23:30:10.424Z,13.27
2023-02-11T23:32:40.854Z,10.82
2023-02-11T23:35:07.648Z,11.07
2023-02-11T23:37:34.272Z,15.15
2023-02-11T23:40:00.885Z,15.98
2023-02-11T23:42:28.786Z,14.43
2023-02-11T23:44:55.380Z,11.50
2023-02-11T23:47:21.976Z,14.52
2023-02-11T23:49:48.568Z,15.00
2023-02-11T23:52:16.412Z,17.05
2023-02-11T23:54:43.434Z,13.15
2023-02-11T23:57:10.063Z,9.35
2023-02-11T23:59:36.664Z,9.93
